Time;durP1;ratioP1;P1;durP2;ratioP2;P2;SDS_P1;SDS_P2;PMS_P1;PMS_P2;Temp;Humidity;BMP_temperature;BMP_pressure;BME280_temperature;BME280_humidity;BME280_pressure;Samples;Min_cycle;Max_cycle;Signal;HPM_P1;HPM_P2
2023/03/27 00:02:19;;;;;;;15.37;3.23;;;8.40;99.90;;;;;;4990874;28;20171;-67
2023/03/27 00:04:44;;;;;;;9.57;3.13;;;8.50;99.90;;;;;;4990142;28;20242;-67
2023/03/27 00:07:11;;;;;;;11.13;2.97;;;8.40;99.90;;;;;;4990995;28;20218;-67
2023/03/27 00:09:38;;;;;;;9.03;2.80;;;8.20;99.90;;;;;;4990278;28;20561;-66
2023/03/27 00:12:04;;;;;;;12.10;2.70;;;8.40;99.90;;;;;;4990299;28;20225;-66
2023/03/27 00:14:30;;;;;;;7.60;2.37;;;8.40;99.90;;;;;;4990558;28;20186;-66
2023/03/27 00:16:58;;;;;;;9.33;2.37;;;8.40;99.90;;;;;;4989965;28;20179;-66
2023/03/27 00:19:25;;;;;;;9.87;2.40;;;8.30;99.90;;;;;;4990014;28;20190;-66
2023/03/27 00:21:52;;;;;;;11.20;2.73;;;8.30;99.90;;;;;;4990472;28;20178;-66
2023/03/27 00:24:18;;;;;;;16.30;2.83;;;;;;;;;;4990599;28;20250;-67
2023/03/27 00:26:44;;;;;;;12.13;2.93;;;8.50;99.90;;;;;;4990482;28;20219;-66
2023/03/27 00:29:12;;;;;;;8.30;2.70;;;8.60;99.90;;;;;;4990040;28;20677;-66
2023/03/27 00:31:37;;;;;;;11.00;2.10;;;8.40;99.90;;;;;;4990881;28;20187;-66
2023/03/27 00:34:03;;;;;;;6.07;2.30;;;8.30;99.90;;;;;;4990931;28;20171;-66
2023/03/27 00:36:29;;;;;;;10.83;2.20;;;8.20;99.90;;;;;;4990457;28;20589;-67
2023/03/27 00:38:54;;;;;;;7.63;2.10;;;8.20;99.90;;;;;;4989773;28;20175;-65
2023/03/27 00:41:21;;;;;;;7.03;2.47;;;8.70;99.90;;;;;;4993747;28;20176;-65
2023/03/27 00:43:48;;;;;;;9.87;2.10;;;8.10;99.90;;;;;;4993355;28;20203;-65
2023/03/27 00:46:37;;;;;;;9.27;2.07;;;8.10;99.90;;;;;;4992739;28;20265;-65
2023/03/27 00:49:07;;;;;;;8.10;1.83;;;8.10;99.90;;;;;;4994783;28;20183;-65
2023/03/27 00:51:35;;;;;;;7.90;1.97;;;8.10;99.90;;;;;;4993649;28;20210;-67
2023/03/27 00:54:01;;;;;;;8.53;2.23;;;;;;;;;;4993068;28;20175;-68
2023/03/27 00:56:27;;;;;;;6.53;2.10;;;8.00;99.90;;;;;;4993312;28;20210;-69
2023/03/27 00:58:58;;;;;;;10.20;2.40;;;9.70;99.90;;;;;;4977821;28;20184;-67
2023/03/27 01:01:26;;;;;;;8.43;1.50;;;8.00;99.90;;;;;;4993346;28;20183;-67
2023/03/27 01:03:53;;;;;;;5.53;2.00;;;8.00;99.90;;;;;;4993866;28;20175;-67
2023/03/27 01:06:20;;;;;;;6.77;1.70;;;8.00;99.90;;;;;;4985161;28;20263;-67
2023/03/27 01:08:46;;;;;;;9.90;2.13;;;8.10;99.90;;;;;;4994129;28;20171;-67
2023/03/27 01:11:36;;;;;;;6.43;1.60;;;8.00;99.90;;;;;;4994077;28;20179;-67
2023/03/27 01:14:31;;;;;;;7.00;1.70;;;8.00;99.90;;;;;;4993602;28;20190;-68
2023/03/27 01:17:20;;;;;;;6.43;1.67;;;8.00;99.90;;;;;;4993846;28;20171;-67
2023/03/27 01:19:56;;;;;;;8.03;1.80;;;8.00;99.90;;;;;;4993034;28;20662;-67
2023/03/27 01:22:46;;;;;;;9.90;1.77;;;8.00;99.90;;;;;;4993780;28;20178;-67
2023/03/27 01:25:33;;;;;;;8.07;1.80;;;8.10;99.90;;;;;;4993597;28;20225;-68
2023/03/27 01:28:07;;;;;;;12.50;2.37;;;8.10;99.90;;;;;;4993078;28;20176;-68
2023/03/27 01:30:47;;;;;;;6.13;1.73;;;8.00;99.90;;;;;;4982134;28;20253;-68
2023/03/27 01:33:37;;;;;;;8.53;1.97;;;8.10;99.90;;;;;;4993988;28;20563;-67
2023/03/27 01:36:16;;;;;;;4.77;2.10;;;8.10;99.90;;;;;;4975260;28;20228;-67
2023/03/27 01:39:00;;;;;;;14.20;2.67;;;8.10;99.90;;;;;;4973434;28;20175;-68
2023/03/27 01:41:36;;;;;;;8.27;1.97;;;8.10;99.90;;;;;;4973381;28;20184;-68
2023/03/27 01:44:22;;;;;;;8.07;2.00;;;8.10;99.90;;;;;;4989950;28;20179;-68
2023/03/27 01:47:30;;;;;;;8.87;1.70;;;8.00;99.90;;;;;;4984011;28;20188;-68
2023/03/27 01:50:14;;;;;;;13.37;2.17;;;8.00;99.90;;;;;;4982179;28;20217;-68
2023/03/27 01:52:43;;;;;;;6.73;2.13;;;8.20;99.90;;;;;;4986890;28;20179;-68
2023/03/27 01:55:17;;;;;;;9.33;1.83;;;8.00;99.90;;;;;;4973640;28;20219;-68
2023/03/27 01:57:59;;;;;;;9.33;1.70;;;8.10;99.90;;;;;;4983162;28;20229;-68
2023/03/27 02:00:26;;;;;;;5.23;1.77;;;8.00;99.90;;;;;;4992780;28;20182;-68
2023/03/27 02:03:01;;;;;;;7.03;2.10;;;8.00;99.90;;;;;;4993049;28;20242;-68
2023/03/27 02:05:26;;;;;;;11.00;1.90;;;7.90;99.90;;;;;;4992754;28;20202;-68
2023/03/27 02:08:02;;;;;;;9.53;2.67;;;7.80;99.90;;;;;;4991012;28;20174;-68
2023/03/27 02:10:32;;;;;;;10.47;1.97;;;7.80;99.90;;;;;;4991870;28;20202;-68
2023/03/27 02:13:04;;;;;;;6.43;2.00;;;7.80;99.90;;;;;;4992845;28;20535;-68
2023/03/27 02:15:33;;;;;;;6.73;1.90;;;7.80;99.90;;;;;;4993107;28;20175;-69
2023/03/27 02:18:05;;;;;;;5.07;1.80;;;7.80;99.90;;;;;;4992319;28;20167;-68
2023/03/27 02:20:32;;;;;;;9.50;1.80;;;7.80;99.90;;;;;;4991712;28;20322;-68
2023/03/27 02:22:59;;;;;;;9.23;2.10;;;7.80;99.90;;;;;;4991145;28;20405;-69
2023/03/27 02:25:30;;;;;;;11.63;2.30;;;7.80;99.90;;;;;;4992355;28;20677;-69
2023/03/27 02:28:22;;;;;;;4.57;1.90;;;7.70;99.90;;;;;;4992371;28;20168;-68
2023/03/27 02:31:08;;;;;;;11.87;2.30;;;7.80;99.90;;;;;;4975207;28;20191;-68
2023/03/27 02:33:41;;;;;;;13.40;2.37;;;7.80;99.90;;;;;;4970628;28;20195;-68
2023/03/27 02:36:15;;;;;;;9.27;2.40;;;8.00;99.90;;;;;;4990875;28;20251;-68
2023/03/27 02:38:55;;;;;;;12.93;2.23;;;7.80;99.90;;;;;;4991859;28;20174;-69
2023/03/27 02:41:50;;;;;;;14.80;2.30;;;7.80;99.90;;;;;;4991972;28;20171;-68
2023/03/27 02:44:16;;;;;;;9.67;2.80;;;;;;;;;;4991671;28;20226;-68
2023/03/27 02:46:52;;;;;;;7.40;1.97;;;7.70;99.90;;;;;;4990880;28;20694;-68
2023/03/27 02:49:28;;;;;;;11.17;2.30;;;7.80;99.90;;;;;;4991979;28;20221;-68
2023/03/27 02:52:05;;;;;;;8.90;2.50;;;7.80;99.90;;;;;;4991707;28;20234;-68
2023/03/27 02:54:40;;;;;;;10.10;2.07;;;7.70;99.90;;;;;;4987495;28;20241;-68
2023/03/27 02:57:14;;;;;;;9.40;2.30;;;7.70;99.90;;;;;;4992198;28;20785;-68
2023/03/27 02:59:53;;;;;;;6.50;2.10;;;7.70;99.90;;;;;;4991267;28;20573;-69
2023/03/27 03:02:24;;;;;;;6.67;1.90;;;7.60;99.90;;;;;;4990365;28;20187;-69
2023/03/27 03:04:55;;;;;;;11.07;2.23;;;7.70;99.90;;;;;;4990363;28;20215;-68
2023/03/27 03:07:23;;;;;;;12.30;2.03;;;7.70;99.90;;;;;;4991632;28;20191;-68
2023/03/27 03:09:49;;;;;;;6.33;2.20;;;7.50;99.90;;;;;;4990916;28;20258;-69
2023/03/27 03:12:15;;;;;;;12.57;2.13;;;7.70;99.90;;;;;;4990855;28;20265;-68
2023/03/27 03:14:43;;;;;;;5.13;1.80;;;7.70;99.90;;;;;;4990679;28;20187;-68
2023/03/27 03:17:09;;;;;;;5.67;2.00;;;7.70;99.90;;;;;;4990869;28;20179;-68
2023/03/27 03:19:35;;;;;;;9.00;1.97;;;8.80;99.90;;;;;;4991813;28;20246;-68
2023/03/27 03:22:02;;;;;;;7.83;2.00;;;7.70;99.90;;;;;;4989788;28;20270;-69
2023/03/27 03:24:28;;;;;;;10.33;2.37;;;7.70;99.90;;;;;;4990932;28;20187;-69
2023/03/27 03:26:54;;;;;;;7.10;1.90;;;7.70;99.90;;;;;;4991199;28;20190;-69
2023/03/27 03:29:20;;;;;;;13.87;2.03;;;7.90;99.90;;;;;;4990599;28;20345;-69
2023/03/27 03:31:46;;;;;;;10.87;2.47;;;;;;;;;;4990703;28;20183;-69
2023/03/27 03:34:13;;;;;;;8.77;1.83;;;7.70;99.90;;;;;;4990114;28;20184;-69
2023/03/27 03:36:40;;;;;;;9.00;2.20;;;7.70;99.90;;;;;;4990652;28;20187;-69
2023/03/27 03:39:06;;;;;;;6.20;2.33;;;7.70;99.90;;;;;;4990444;28;20175;-69
2023/03/27 03:41:32;;;;;;;10.83;2.17;;;7.70;99.90;;;;;;4990744;28;20194;-70
2023/03/27 03:43:58;;;;;;;9.37;1.93;;;7.70;99.90;;;;;;4989952;28;20183;-69
2023/03/27 03:46:23;;;;;;;5.47;1.90;;;7.70;99.90;;;;;;4989975;28;20708;-69
2023/03/27 03:48:49;;;;;;;11.10;2.17;;;7.70;99.90;;;;;;4990674;28;20543;-69
2023/03/27 03:51:15;;;;;;;6.00;2.53;;;7.70;99.90;;;;;;4991097;28;20665;-69
2023/03/27 03:53:40;;;;;;;9.27;2.20;;;7.70;99.90;;;;;;4990849;28;20194;-68
2023/03/27 03:56:06;;;;;;;9.30;2.27;;;7.70;99.90;;;;;;4991143;28;20183;-68
2023/03/27 03:58:32;;;;;;;8.37;2.40;;;7.70;99.90;;;;;;4989269;28;20171;-68
2023/03/27 04:00:57;;;;;;;11.40;2.20;;;7.60;99.90;;;;;;4982021;28;20241;-68
2023/03/27 04:03:25;;;;;;;13.70;2.60;;;7.40;99.90;;;;;;4985392;28;20578;-68
2023/03/27 04:05:52;;;;;;;13.97;2.30;;;7.80;99.90;;;;;;4985823;28;20229;-68
2023/03/27 04:08:18;;;;;;;8.20;2.63;;;7.70;99.90;;;;;;4990088;28;20654;-68
2023/03/27 04:10:43;;;;;;;7.93;2.83;;;7.60;99.90;;;;;;4984042;28;20193;-68
2023/03/27 04:13:09;;;;;;;12.67;2.43;;;7.80;99.90;;;;;;4990754;28;20167;-67
2023/03/27 04:15:35;;;;;;;14.97;2.30;;;7.50;99.90;;;;;;4994374;28;20179;-68
2023/03/27 04:18:02;;;;;;;8.70;2.23;;;7.60;99.90;;;;;;4994331;28;20210;-68
2023/03/27 04:20:27;;;;;;;9.20;2.83;;;7.40;99.90;;;;;;4993694;28;20225;-68
2023/03/27 04:22:54;;;;;;;11.67;2.70;;;7.50;99.90;;;;;;4994234;28;20250;-68
2023/03/27 04:25:22;;;;;;;7.00;2.40;;;7.60;99.90;;;;;;4993804;28;20206;-68
2023/03/27 04:27:50;;;;;;;13.67;2.73;;;7.40;99.90;;;;;;4994597;28;20310;-68
2023/03/27 04:30:21;;;;;;;8.70;2.43;;;7.50;99.90;;;;;;4993753;28;20175;-68
2023/03/27 04:32:48;;;;;;;12.67;2.00;;;7.60;99.90;;;;;;4993243;28;20183;-68
2023/03/27 04:35:14;;;;;;;4.97;1.93;;;7.40;99.90;;;;;;4994117;28;20231;-68
2023/03/27 04:37:43;;;;;;;7.57;2.30;;;7.50;99.90;;;;;;4993567;28;20642;-68
2023/03/27 04:40:12;;;;;;;14.93;2.47;;;7.50;99.90;;;;;;4994166;28;20179;-68
2023/03/27 04:42:44;;;;;;;8.63;2.63;;;7.60;99.90;;;;;;4993877;28;20178;-68
2023/03/27 04:45:11;;;;;;;12.90;2.43;;;7.30;99.90;;;;;;4994058;28;20218;-68
2023/03/27 04:47:38;;;;;;;9.77;2.50;;;7.30;99.90;;;;;;4994026;28;20666;-68
2023/03/27 04:50:05;;;;;;;6.40;2.17;;;7.50;99.90;;;;;;4994685;28;20179;-68
2023/03/27 04:52:32;;;;;;;8.50;2.50;;;7.30;99.90;;;;;;4993972;28;20182;-69
2023/03/27 04:55:00;;;;;;;9.63;2.03;;;7.30;99.90;;;;;;4990659;28;20175;-67
2023/03/27 04:57:27;;;;;;;11.57;2.33;;;7.60;99.90;;;;;;4990961;28;20315;-67
2023/03/27 04:59:53;;;;;;;9.40;2.77;;;7.40;99.90;;;;;;4994218;28;20187;-67
2023/03/27 05:02:20;;;;;;;9.83;2.27;;;7.30;99.90;;;;;;4976897;28;20187;-67
2023/03/27 05:04:47;;;;;;;6.90;1.77;;;7.30;99.90;;;;;;4993363;28;20286;-68
2023/03/27 05:07:14;;;;;;;6.40;1.87;;;7.50;99.90;;;;;;4992997;28;20203;-68
2023/03/27 05:09:39;;;;;;;9.93;2.57;;;7.30;99.90;;;;;;4993536;28;20266;-67
2023/03/27 05:12:05;;;;;;;11.73;2.30;;;7.50;99.90;;;;;;4993788;28;20580;-68
2023/03/27 05:14:31;;;;;;;11.00;2.60;;;;;;;;;;4988699;28;20530;-68
2023/03/27 05:16:59;;;;;;;11.40;2.43;;;7.60;99.90;;;;;;4992768;28;20187;-68
2023/03/27 05:19:25;;;;;;;8.33;2.50;;;7.50;99.90;;;;;;4993684;28;20653;-68
2023/03/27 05:21:51;;;;;;;10.27;2.90;;;7.40;99.90;;;;;;4993069;28;20226;-68
2023/03/27 05:24:17;;;;;;;9.50;2.40;;;7.40;99.90;;;;;;4993080;28;20178;-68
2023/03/27 05:26:42;;;;;;;10.90;2.40;;;7.40;99.90;;;;;;4992309;28;20568;-68
2023/03/27 05:29:08;;;;;;;10.33;2.70;;;7.40;99.90;;;;;;4992614;28;20241;-68
2023/03/27 05:31:35;;;;;;;11.37;2.47;;;7.50;99.90;;;;;;4992498;28;20191;-68
2023/03/27 05:34:02;;;;;;;13.40;2.33;;;7.40;99.90;;;;;;4992995;28;20214;-68
2023/03/27 05:36:28;;;;;;;11.60;2.53;;;7.20;99.90;;;;;;4992560;28;20270;-68
2023/03/27 05:38:56;;;;;;;8.03;2.57;;;7.20;99.90;;;;;;4992415;28;20313;-68
2023/03/27 05:41:23;;;;;;;9.23;2.50;;;7.30;99.90;;;;;;4992949;28;20202;-68
2023/03/27 05:43:49;;;;;;;10.30;2.60;;;7.30;99.90;;;;;;4992639;28;20187;-68
2023/03/27 05:46:15;;;;;;;7.53;2.47;;;7.30;99.90;;;;;;4992506;28;20215;-68
2023/03/27 05:48:41;;;;;;;6.13;2.33;;;7.10;99.90;;;;;;4992223;28;20190;-69
2023/03/27 05:51:08;;;;;;;8.97;2.67;;;7.20;99.90;;;;;;4992514;28;20182;-68
2023/03/27 05:53:35;;;;;;;11.03;2.70;;;7.10;99.90;;;;;;4993100;28;20179;-68
2023/03/27 05:56:01;;;;;;;7.30;2.30;;;7.10;99.90;;;;;;4975863;28;20189;-67
2023/03/27 05:58:27;;;;;;;14.33;3.00;;;7.60;99.90;;;;;;4993465;28;20187;-68
2023/03/27 06:00:53;;;;;;;9.13;2.53;;;7.00;99.90;;;;;;4992673;28;20192;-68
2023/03/27 06:03:19;;;;;;;7.20;2.47;;;7.00;99.90;;;;;;4992934;28;20167;-69
2023/03/27 06:05:45;;;;;;;9.37;2.47;;;6.90;99.90;;;;;;4992059;28;20309;-67
2023/03/27 06:08:11;;;;;;;9.07;2.33;;;7.00;99.90;;;;;;4992293;28;20171;-68
2023/03/27 06:10:39;;;;;;;11.87;2.93;;;6.90;99.90;;;;;;4992973;28;20179;-70
2023/03/27 06:13:08;;;;;;;18.27;3.10;;;6.90;99.90;;;;;;4991977;28;20643;-68
2023/03/27 06:15:36;;;;;;;9.40;3.00;;;6.60;99.90;;;;;;4992077;28;20175;-68
2023/03/27 06:18:02;;;;;;;10.13;2.60;;;6.90;99.90;;;;;;4975195;28;20183;-68
2023/03/27 06:20:28;;;;;;;9.53;2.70;;;6.90;99.90;;;;;;4992279;28;20194;-68
2023/03/27 06:22:58;;;;;;;10.70;2.60;;;6.80;99.90;;;;;;4992986;28;20228;-68
2023/03/27 06:25:25;;;;;;;9.17;2.73;;;6.90;99.90;;;;;;4992739;28;20649;-68
2023/03/27 06:27:50;;;;;;;12.40;3.30;;;6.80;99.90;;;;;;4991500;28;20185;-68
2023/03/27 06:30:19;;;;;;;10.30;3.10;;;6.90;99.90;;;;;;4991167;28;20171;-68
2023/03/27 06:32:50;;;;;;;13.30;3.30;;;6.90;99.90;;;;;;4992353;28;20248;-68
2023/03/27 06:35:17;;;;;;;11.83;2.90;;;6.90;99.90;;;;;;4992151;28;20231;-71
2023/03/27 06:37:45;;;;;;;6.47;2.60;;;6.90;99.90;;;;;;4990159;28;20168;-70
2023/03/27 06:40:21;;;;;;;6.63;2.60;;;7.20;99.90;;;;;;4992056;28;20176;-70
2023/03/27 06:42:56;;;;;;;9.17;2.67;;;6.90;99.90;;;;;;4991167;28;20187;-70
2023/03/27 06:45:26;;;;;;;10.73;3.20;;;7.00;99.90;;;;;;4991662;28;20735;-70
2023/03/27 06:47:54;;;;;;;9.13;2.40;;;6.90;99.90;;;;;;4992508;28;20627;-70
2023/03/27 06:50:20;;;;;;;8.90;2.70;;;6.90;99.90;;;;;;4991347;28;20179;-70
2023/03/27 06:52:47;;;;;;;8.20;2.77;;;7.00;99.90;;;;;;4992627;28;20182;-70
2023/03/27 06:55:14;;;;;;;9.37;2.43;;;7.10;99.90;;;;;;4992314;28;20191;-70
2023/03/27 06:57:44;;;;;;;10.63;2.87;;;7.10;99.90;;;;;;4991310;28;20215;-70
2023/03/27 07:00:18;;;;;;;11.03;2.73;;;7.10;99.90;;;;;;4991814;28;20558;-70
2023/03/27 07:02:48;;;;;;;11.90;3.07;;;7.10;99.90;;;;;;4991707;28;20225;-70
2023/03/27 07:05:15;;;;;;;13.97;2.60;;;7.20;99.90;;;;;;4991869;28;20214;-70
2023/03/27 07:07:42;;;;;;;8.77;2.20;;;7.20;99.90;;;;;;4992340;28;20262;-71
2023/03/27 07:10:08;;;;;;;11.40;2.50;;;7.20;99.90;;;;;;4991817;28;20171;-70
2023/03/27 07:12:35;;;;;;;7.40;3.00;;;7.20;99.90;;;;;;4973921;28;20245;-70
2023/03/27 07:15:00;;;;;;;11.87;2.97;;;6.90;99.90;;;;;;4991610;28;20189;-70
2023/03/27 07:17:26;;;;;;;8.17;2.53;;;7.30;99.90;;;;;;4977015;28;20190;-70
2023/03/27 07:19:52;;;;;;;10.57;2.77;;;7.40;99.90;;;;;;4991116;28;20267;-70
2023/03/27 07:22:18;;;;;;;8.07;2.43;;;7.60;99.90;;;;;;4990555;28;20190;-70
2023/03/27 07:24:43;;;;;;;6.03;2.13;;;7.80;99.90;;;;;;4992025;28;20171;-69
2023/03/27 07:27:09;;;;;;;10.23;2.47;;;7.70;99.90;;;;;;4991574;28;20597;-70
2023/03/27 07:29:36;;;;;;;10.90;2.83;;;7.80;99.90;;;;;;4990718;28;20650;-70
2023/03/27 07:32:02;;;;;;;12.97;2.67;;;7.70;99.90;;;;;;4990291;28;20639;-69
2023/03/27 07:34:28;;;;;;;11.53;2.77;;;6.60;99.90;;;;;;4969832;28;20180;-70
2023/03/27 07:36:56;;;;;;;12.57;2.90;;;7.60;99.90;;;;;;4990575;28;20179;-69
2023/03/27 07:39:22;;;;;;;12.03;3.30;;;7.70;99.90;;;;;;4983437;28;20635;-69
2023/03/27 07:41:47;;;;;;;13.97;3.27;;;7.60;99.90;;;;;;4969704;28;20182;-69
2023/03/27 07:44:13;;;;;;;14.13;3.27;;;7.60;99.90;;;;;;4980161;28;20172;-69
2023/03/27 07:46:38;;;;;;;11.20;3.33;;;7.70;99.90;;;;;;4991377;28;20729;-69
2023/03/27 07:49:04;;;;;;;8.77;2.90;;;7.90;99.90;;;;;;4991204;28;20572;-70
2023/03/27 07:51:31;;;;;;;8.20;2.70;;;7.90;99.90;;;;;;4966485;28;20190;-70
2023/03/27 07:54:00;;;;;;;14.17;3.00;;;7.90;99.90;;;;;;4972129;28;20215;-70
2023/03/27 07:56:26;;;;;;;7.10;2.60;;;;;;;;;;4982220;28;20650;-70
2023/03/27 07:58:52;;;;;;;7.47;2.63;;;7.70;99.90;;;;;;4981069;28;20258;-69
2023/03/27 08:01:17;;;;;;;15.10;2.63;;;7.60;99.90;;;;;;4991175;28;20593;-70
2023/03/27 08:03:43;;;;;;;6.53;2.20;;;7.30;99.90;;;;;;4990271;28;20179;-70
2023/03/27 08:06:09;;;;;;;7.20;2.20;;;7.60;99.90;;;;;;4990854;28;20219;-71
2023/03/27 08:08:35;;;;;;;8.93;2.57;;;;;;;;;;4972723;28;20211;-70
2023/03/27 08:11:03;;;;;;;7.37;2.47;;;7.70;99.90;;;;;;4988548;28;20271;-69
2023/03/27 08:13:28;;;;;;;9.70;2.43;;;7.70;99.90;;;;;;4990668;28;20326;-70
2023/03/27 08:16:05;;;;;;;11.63;2.70;;;7.90;99.90;;;;;;4990764;28;20638;-69
2023/03/27 08:18:31;;;;;;;10.17;2.40;;;7.80;99.90;;;;;;4970023;28;20650;-70
2023/03/27 08:20:58;;;;;;;14.67;3.03;;;7.80;99.90;;;;;;4971103;28;20181;-69
2023/03/27 08:23:26;;;;;;;7.77;2.37;;;;;;;;;;4971484;28;20258;-70
2023/03/27 08:25:59;;;;;;;15.37;2.67;;;8.20;99.90;;;;;;4970223;28;20269;-70
2023/03/27 08:28:35;;;;;;;10.57;2.23;;;8.20;99.90;;;;;;4970406;28;20172;-70
2023/03/27 08:31:08;;;;;;;6.27;2.00;;;8.20;99.90;;;;;;4980132;28;20664;-71
2023/03/27 08:33:35;;;;;;;6.77;1.97;;;;;;;;;;4990096;28;20187;-71
2023/03/27 08:36:01;;;;;;;8.87;1.43;;;8.80;99.90;;;;;;4989766;28;20226;-71
2023/03/27 08:38:31;;;;;;;7.30;1.87;;;;;;;;;;4990939;28;20250;-72
2023/03/27 08:40:58;;;;;;;7.97;2.17;;;11.60;99.90;;;;;;4990438;28;20171;-71
2023/03/27 08:43:44;;;;;;;8.03;1.70;;;13.40;99.90;;;;;;4989335;28;20194;-73
2023/03/27 08:46:24;;;;;;;8.87;1.60;;;14.10;99.90;;;;;;4988889;28;20219;-70
2023/03/27 08:48:57;;;;;;;10.18;1.73;;;14.20;99.90;;;;;;4991010;28;20261;-71
2023/03/27 08:51:42;;;;;;;4.68;1.40;;;14.30;99.90;;;;;;4990167;28;20191;-72
2023/03/27 08:54:46;;;;;;;6.97;2.00;;;13.30;99.90;;;;;;4990168;28;20184;-72
2023/03/27 08:57:23;;;;;;;10.00;1.83;;;12.30;99.90;;;;;;4986799;28;20187;-72
2023/03/27 08:59:58;;;;;;;7.28;2.10;;;13.10;99.90;;;;;;4984672;28;20185;-72
2023/03/27 09:02:54;;;;;;;11.80;1.98;;;14.60;99.90;;;;;;4993044;28;20163;-72
2023/03/27 09:05:34;;;;;;;9.38;1.70;;;14.80;99.90;;;;;;4994856;28;20301;-72
2023/03/27 09:08:37;;;;;;;8.77;2.00;;;15.20;99.90;;;;;;4994736;28;20213;-72
2023/03/27 09:11:26;;;;;;;6.50;1.88;;;12.80;99.90;;;;;;4994139;28;20186;-72
2023/03/27 09:13:52;;;;;;;10.70;1.60;;;12.10;99.90;;;;;;4982121;28;20183;-73
2023/03/27 09:16:39;;;;;;;9.60;1.60;;;12.60;99.90;;;;;;4993114;28;20225;-73
2023/03/27 09:19:18;;;;;;;6.32;1.73;;;14.60;99.90;;;;;;4993622;28;20194;-72
2023/03/27 09:21:48;;;;;;;6.95;1.50;;;15.70;99.90;;;;;;4992672;28;20348;-73
2023/03/27 09:24:37;;;;;;;9.35;2.00;;;16.30;99.90;;;;;;4985151;28;20194;-72
2023/03/27 09:27:28;;;;;;;12.68;2.03;;;16.70;99.90;;;;;;4987427;28;20188;-72
2023/03/27 09:30:10;;;;;;;8.20;1.98;;;16.90;99.90;;;;;;4986502;28;20266;-71
2023/03/27 09:32:37;;;;;;;7.82;1.63;;;17.10;99.90;;;;;;4975579;28;20786;-71
2023/03/27 09:35:06;;;;;;;4.85;1.35;;;17.70;99.90;;;;;;4992734;28;20229;-71
2023/03/27 09:37:32;;;;;;;7.03;1.75;;;17.90;99.90;;;;;;4992748;28;20198;-71
2023/03/27 09:39:59;;;;;;;12.25;2.28;;;15.90;99.90;;;;;;4993753;28;20792;-70
2023/03/27 09:42:34;;;;;;;7.60;1.60;;;15.20;99.90;;;;;;4994023;28;20222;-71
2023/03/27 09:45:03;;;;;;;6.25;1.85;;;16.60;99.90;;;;;;4994048;28;20666;-70
2023/03/27 09:48:00;;;;;;;9.38;2.05;;;18.10;99.90;;;;;;4993469;28;20202;-71
2023/03/27 09:50:43;;;;;;;10.85;2.25;;;17.20;99.90;;;;;;4993262;28;20187;-71
2023/03/27 09:53:17;;;;;;;9.30;2.10;;;18.30;99.90;;;;;;4992584;28;20171;-71
2023/03/27 09:55:53;;;;;;;5.95;1.60;;;18.10;99.90;;;;;;4992375;28;20349;-71
2023/03/27 09:58:27;;;;;;;7.57;2.13;;;17.20;99.90;;;;;;4985802;28;20171;-70
2023/03/27 10:01:13;;;;;;;11.95;1.92;;;16.80;99.90;;;;;;4992710;28;20258;-70
2023/03/27 10:03:42;;;;;;;12.55;1.80;;;18.10;97.10;;;;;;4978198;28;20168;-71
2023/03/27 10:06:12;;;;;;;7.78;1.60;;;19.00;98.40;;;;;;4973872;28;20215;-70
2023/03/27 10:08:44;;;;;;;6.38;1.55;;;19.30;83.60;;;;;;4974305;28;20168;-70
2023/03/27 10:11:16;;;;;;;9.00;1.90;;;19.40;65.50;;;;;;4973835;28;20180;-70
2023/03/27 10:13:49;;;;;;;8.82;2.03;;;19.70;46.80;;;;;;4974152;28;20164;-70
2023/03/27 10:16:17;;;;;;;3.83;1.35;;;18.50;58.20;;;;;;4992182;28;20193;-70
2023/03/27 10:18:49;;;;;;;7.97;1.70;;;18.40;58.30;;;;;;4993503;28;20255;-70
2023/03/27 10:21:25;;;;;;;7.75;1.98;;;18.20;53.70;;;;;;4993390;28;20290;-69
2023/03/27 10:23:59;;;;;;;8.68;1.73;;;17.90;48.30;;;;;;4993660;28;20167;-70
2023/03/27 10:26:26;;;;;;;7.05;1.73;;;17.60;89.80;;;;;;4993157;28;20230;-70
2023/03/27 10:28:57;;;;;;;11.00;2.03;;;17.70;75.20;;;;;;4993089;28;20191;-70
2023/03/27 10:31:31;;;;;;;8.93;1.88;;;19.00;76.90;;;;;;4993163;28;20182;-70
2023/03/27 10:34:04;;;;;;;9.57;1.55;;;18.20;46.70;;;;;;4993008;28;20210;-70
2023/03/27 10:36:36;;;;;;;7.20;1.58;;;16.90;75.90;;;;;;4992974;28;20322;-70
2023/03/27 10:39:06;;;;;;;8.82;2.00;;;18.80;63.30;;;;;;4993057;28;20179;-70
2023/03/27 10:41:34;;;;;;;8.30;1.60;;;18.90;39.40;;;;;;4992982;28;20701;-70
2023/03/27 10:44:03;;;;;;;8.90;1.85;;;18.60;53.20;;;;;;4975433;28;20570;-70
2023/03/27 10:46:30;;;;;;;11.80;1.90;;;19.70;35.50;;;;;;4992796;28;20214;-71
2023/03/27 10:49:14;;;;;;;8.38;2.13;;;19.00;16.20;;;;;;4975468;28;20209;-70
2023/03/27 10:51:51;;;;;;;6.38;2.05;;;17.10;36.10;;;;;;4983594;28;20175;-70
2023/03/27 10:54:41;;;;;;;6.85;1.70;;;16.40;71.40;;;;;;4973563;28;20211;-70
2023/03/27 10:57:23;;;;;;;7.03;1.70;;;15.60;94.40;;;;;;4973348;28;20239;-70
2023/03/27 11:00:17;;;;;;;9.75;1.85;;;16.00;83.30;;;;;;4973248;28;20526;-70
2023/03/27 11:03:10;;;;;;;7.15;1.85;;;15.50;85.70;;;;;;4973102;28;20270;-70
2023/03/27 11:05:43;;;;;;;6.70;1.83;;;14.30;99.90;;;;;;4954674;28;20230;-69
2023/03/27 11:08:26;;;;;;;7.60;1.95;;;14.10;99.90;;;;;;4973113;28;20259;-69
2023/03/27 11:10:56;;;;;;;5.25;1.42;;;13.80;99.90;;;;;;4972992;28;20266;-70
2023/03/27 11:13:22;;;;;;;9.30;1.77;;;13.80;99.90;;;;;;4973040;28;20642;-69
2023/03/27 11:16:06;;;;;;;7.10;1.67;;;13.80;99.90;;;;;;4973001;28;20227;-69
2023/03/27 11:18:38;;;;;;;4.65;1.40;;;12.80;99.90;;;;;;4972821;28;20203;-69
2023/03/27 11:21:11;;;;;;;4.78;1.42;;;12.70;99.90;;;;;;4973286;28;20174;-69
2023/03/27 11:23:51;;;;;;;7.38;1.40;;;13.50;99.90;;;;;;4970995;28;20658;-69
2023/03/27 11:26:21;;;;;;;7.93;1.38;;;13.50;99.90;;;;;;4972387;28;20214;-69
2023/03/27 11:29:09;;;;;;;7.15;1.55;;;13.70;99.90;;;;;;4972630;28;20180;-69
2023/03/27 11:31:45;;;;;;;7.05;1.42;;;12.90;99.90;;;;;;4972948;28;20183;-69
2023/03/27 11:34:29;;;;;;;6.10;1.80;;;13.10;99.90;;;;;;4971426;28;20183;-69
2023/03/27 11:37:14;;;;;;;5.22;1.42;;;13.20;99.90;;;;;;4934087;29;20276;-69
2023/03/27 11:39:55;;;;;;;4.63;1.40;;;13.80;99.90;;;;;;4934101;29;20216;-69
2023/03/27 11:42:35;;;;;;;3.83;1.33;;;15.20;99.90;;;;;;4934244;29;20169;-69
2023/03/27 11:45:05;;;;;;;4.35;1.50;;;17.60;99.90;;;;;;4934019;29;20308;-70
2023/03/27 11:47:55;;;;;;;6.18;1.50;;;18.00;62.30;;;;;;4933907;29;20177;-70
2023/03/27 11:50:55;;;;;;;6.65;1.50;;;18.00;31.50;;;;;;4933867;29;20200;-70
2023/03/27 11:53:55;;;;;;;4.07;1.27;;;17.20;34.50;;;;;;4933951;29;20653;-70
2023/03/27 11:56:36;;;;;;;5.55;1.48;;;18.30;29.70;;;;;;4933969;29;20229;-71
2023/03/27 11:59:23;;;;;;;6.13;1.40;;;19.60;15.60;;;;;;4934038;29;20177;-71
2023/03/27 12:02:03;;;;;;;2.83;1.00;;;18.10;1.00;;;;;;4934262;29;20527;-71
2023/03/27 12:04:41;;;;;;;7.43;1.48;;;15.70;11.10;;;;;;4932661;29;20177;-71
2023/03/27 12:07:33;;;;;;;4.88;1.20;;;15.80;25.40;;;;;;4933894;29;20722;-71
2023/03/27 12:10:17;;;;;;;7.22;1.48;;;15.50;40.80;;;;;;4933737;29;20648;-71
2023/03/27 12:13:08;;;;;;;8.95;1.80;;;15.40;52.40;;;;;;4933814;29;20172;-71
2023/03/27 12:15:56;;;;;;;6.28;1.67;;;15.00;57.40;;;;;;4933947;29;20181;-71
2023/03/27 12:18:33;;;;;;;9.68;1.52;;;15.10;85.40;;;;;;4932476;29;20577;-71
2023/03/27 12:20:59;;;;;;;6.05;1.70;;;14.50;99.90;;;;;;4933007;29;20197;-69
2023/03/27 12:23:37;;;;;;;7.07;1.42;;;14.40;99.90;;;;;;4931783;29;20181;-70
2023/03/27 12:26:32;;;;;;;6.03;1.55;;;14.60;99.90;;;;;;4936066;29;20698;-69
2023/03/27 12:29:03;;;;;;;6.35;1.30;;;14.70;99.90;;;;;;4942335;28;20179;-69
2023/03/27 12:32:06;;;;;;;8.07;1.70;;;14.20;99.90;;;;;;4951702;28;20181;-70
2023/03/27 12:34:51;;;;;;;6.63;1.10;;;14.70;99.90;;;;;;4957771;28;20272;-70
2023/03/27 12:37:21;;;;;;;7.05;1.58;;;15.80;99.90;;;;;;4993759;28;20210;-70
2023/03/27 12:39:57;;;;;;;8.18;1.55;;;18.30;92.70;;;;;;4993726;28;20175;-70
2023/03/27 12:43:08;;;;;;;3.10;1.60;;;20.60;12.40;;;;;;4992827;28;20646;-70
2023/03/27 12:45:34;;;;;;;7.22;1.60;;;20.50;1.00;;;;;;4914162;29;20213;-72
2023/03/27 12:48:08;;;;;;;6.18;1.92;;;19.60;1.00;;;;;;4913590;29;20197;-72
2023/03/27 12:50:55;;;;;;;6.13;1.85;;;18.50;1.00;;;;;;4931535;28;20179;-72
2023/03/27 12:53:54;;;;;;;10.77;2.10;;;17.50;1.00;;;;;;4974183;28;20167;-71
2023/03/27 12:56:28;;;;;;;5.95;1.77;;;17.00;1.00;;;;;;4973379;28;20180;-71
2023/03/27 12:58:54;;;;;;;5.15;1.73;;;17.90;9.90;;;;;;4974211;28;20653;-71
2023/03/27 13:01:42;;;;;;;7.85;1.73;;;17.40;2.20;;;;;;4972335;28;20231;-71
2023/03/27 13:04:29;;;;;;;6.40;2.38;;;17.10;10.80;;;;;;4992043;28;20167;-71
2023/03/27 13:07:04;;;;;;;4.72;2.00;;;17.70;20.10;;;;;;4992892;28;20219;-71
2023/03/27 13:09:52;;;;;;;6.15;1.92;;;17.50;5.30;;;;;;4991782;28;20226;-71
2023/03/27 13:12:21;;;;;;;6.78;2.22;;;16.70;8.30;;;;;;4983678;28;20183;-71
2023/03/27 13:15:15;;;;;;;7.07;2.20;;;16.40;27.70;;;;;;4975471;28;20183;-71
2023/03/27 13:17:50;;;;;;;8.90;1.88;;;15.70;43.30;;;;;;4986117;28;20223;-70
2023/03/27 13:20:47;;;;;;;9.45;2.20;;;14.90;82.00;;;;;;4993532;28;20171;-70
2023/03/27 13:23:26;;;;;;;4.40;1.95;;;14.60;99.90;;;;;;4973566;28;20200;-70